sensor_id;sensor_type;location;lat;lon;timestamp;pressure;altitude;pressure_sealevel;temperature;humidity
28310;BME280;15571;50.974;13.936;2022-10-26T09:53:02;100456.41;;;11.88;100.00
28310;BME280;15571;50.974;13.936;2022-10-26T09:56:08;100455.50;;;11.94;100.00
28310;BME280;15571;50.974;13.936;2022-10-26T09:59:12;100455.50;;;11.98;100.00
28310;BME280;15571;50.974;13.936;2022-10-26T10:02:33;100453.69;;;12.07;100.00
28310;BME280;15571;50.974;13.936;2022-10-26T10:05:36;100451.91;;;12.09;100.00
28310;BME280;15571;50.974;13.936;2022-10-26T10:08:41;100448.34;;;12.16;100.00
28310;BME280;15571;50.974;13.936;2022-10-26T10:11:49;100449.19;;;12.20;100.00
28310;BME280;15571;50.974;13.936;2022-10-26T10:14:57;100446.50;;;12.27;100.00
28310;BME280;15571;50.974;13.936;2022-10-26T10:18:00;100442.09;;;12.33;100.00
28310;BME280;15571;50.974;13.936;2022-10-26T10:21:03;100440.28;;;12.39;100.00
28310;BME280;15571;50.974;13.936;2022-10-26T10:24:22;100430.59;;;12.46;100.00
28310;BME280;15571;50.974;13.936;2022-10-26T10:27:26;100426.13;;;12.56;100.00
28310;BME280;15571;50.974;13.936;2022-10-26T10:30:30;100416.44;;;12.63;100.00
28310;BME280;15571;50.974;13.936;2022-10-26T10:33:38;100419.84;;;12.71;100.00
28310;BME280;15571;50.974;13.936;2022-10-26T10:36:42;100419.75;;;12.77;100.00
28310;BME280;15571;50.974;13.936;2022-10-26T10:39:47;100422.34;;;12.83;100.00
28310;BME280;15571;50.974;13.936;2022-10-26T10:42:51;100430.94;;;12.95;100.00
28310;BME280;15571;50.974;13.936;2022-10-26T10:45:57;100419.47;;;13.02;100.00
28310;BME280;15571;50.974;13.936;2022-10-26T10:49:01;100413.28;;;13.06;100.00
28310;BME280;15571;50.974;13.936;2022-10-26T10:52:04;100407.03;;;13.13;100.00
28310;BME280;15571;50.974;13.936;2022-10-26T10:55:17;100405.22;;;13.21;100.00
28310;BME280;15571;50.974;13.936;2022-10-26T10:58:25;100405.94;;;13.31;100.00
28310;BME280;15571;50.974;13.936;2022-10-26T11:01:36;100405.00;;;13.40;100.00
28310;BME280;15571;50.974;13.936;2022-10-26T11:04:55;100408.38;;;13.48;100.00
28310;BME280;15571;50.974;13.936;2022-10-26T11:08:02;100403.81;;;13.60;100.00
28310;BME280;15571;50.974;13.936;2022-10-26T11:11:11;100406.31;;;13.69;100.00
28310;BME280;15571;50.974;13.936;2022-10-26T11:14:18;100398.34;;;13.74;100.00
28310;BME280;15571;50.974;13.936;2022-10-26T11:17:26;100396.41;;;13.85;100.00
28310;BME280;15571;50.974;13.936;2022-10-26T11:20:31;100400.75;;;13.88;100.00
28310;BME280;15571;50.974;13.936;2022-10-26T11:23:41;100391.00;;;13.94;100.00
28310;BME280;15571;50.974;13.936;2022-10-26T11:26:50;100397.84;;;14.03;100.00
28310;BME280;15571;50.974;13.936;2022-10-26T11:30:01;100401.31;;;14.07;100.00
28310;BME280;15571;50.974;13.936;2022-10-26T11:33:10;100392.47;;;14.11;100.00
28310;BME280;15571;50.974;13.936;2022-10-26T11:36:18;100402.03;;;14.16;100.00
28310;BME280;15571;50.974;13.936;2022-10-26T11:39:30;100398.38;;;14.24;100.00
28310;BME280;15571;50.974;13.936;2022-10-26T11:42:47;100400.00;;;14.31;100.00
28310;BME280;15571;50.974;13.936;2022-10-26T11:46:02;100395.53;;;14.36;100.00
28310;BME280;15571;50.974;13.936;2022-10-26T11:49:19;100400.75;;;14.38;100.00
28310;BME280;15571;50.974;13.936;2022-10-26T11:52:25;100396.38;;;14.38;100.00
28310;BME280;15571;50.974;13.936;2022-10-26T11:55:30;100393.66;;;14.41;100.00
28310;BME280;15571;50.974;13.936;2022-10-26T11:58:35;100397.94;;;14.48;100.00
28310;BME280;15571;50.974;13.936;2022-10-26T12:01:38;100392.59;;;14.52;100.00
28310;BME280;15571;50.974;13.936;2022-10-26T12:04:44;100399.59;;;14.53;100.00
28310;BME280;15571;50.974;13.936;2022-10-26T12:07:57;100408.34;;;14.55;100.00
28310;BME280;15571;50.974;13.936;2022-10-26T12:11:07;100395.06;;;14.61;100.00
28310;BME280;15571;50.974;13.936;2022-10-26T12:14:25;100403.75;;;14.64;100.00
28310;BME280;15571;50.974;13.936;2022-10-26T12:17:33;100402.88;;;14.67;100.00
28310;BME280;15571;50.974;13.936;2022-10-26T12:20:59;100400.09;;;14.75;100.00
28310;BME280;15571;50.974;13.936;2022-10-26T12:24:25;100408.03;;;14.73;100.00
28310;BME280;15571;50.974;13.936;2022-10-26T12:27:50;100417.63;;;14.76;100.00
28310;BME280;15571;50.974;13.936;2022-10-26T12:57:32;100407.47;;;15.01;100.00
28310;BME280;15571;50.974;13.936;2022-10-26T13:00:44;100410.94;;;15.03;100.00
28310;BME280;15571;50.974;13.936;2022-10-26T13:03:58;100406.53;;;15.04;100.00
28310;BME280;15571;50.974;13.936;2022-10-26T13:07:17;100410.88;;;15.06;100.00
28310;BME280;15571;50.974;13.936;2022-10-26T13:10:25;100407.34;;;15.07;100.00
28310;BME280;15571;50.974;13.936;2022-10-26T13:13:30;100417.00;;;15.07;100.00
28310;BME280;15571;50.974;13.936;2022-10-26T13:16:43;100405.63;;;15.05;100.00
28310;BME280;15571;50.974;13.936;2022-10-26T13:19:54;100410.88;;;15.06;100.00
28310;BME280;15571;50.974;13.936;2022-10-26T13:22:58;100403.81;;;15.08;100.00
28310;BME280;15571;50.974;13.936;2022-10-26T13:26:04;100412.63;;;15.07;100.00
28310;BME280;15571;50.974;13.936;2022-10-26T13:29:09;100410.78;;;15.09;100.00
28310;BME280;15571;50.974;13.936;2022-10-26T13:32:12;100416.06;;;15.09;100.00
28310;BME280;15571;50.974;13.936;2022-10-26T13:35:15;100414.38;;;15.08;100.00
28310;BME280;15571;50.974;13.936;2022-10-26T13:38:24;100414.38;;;15.08;100.00
28310;BME280;15571;50.974;13.936;2022-10-26T13:41:36;100404.72;;;15.06;100.00
28310;BME280;15571;50.974;13.936;2022-10-26T13:44:46;100409.00;;;15.12;100.00
28310;BME280;15571;50.974;13.936;2022-10-26T13:47:56;100409.00;;;15.12;100.00
28310;BME280;15571;50.974;13.936;2022-10-26T13:51:02;100414.31;;;15.10;100.00
28310;BME280;15571;50.974;13.936;2022-10-26T13:54:16;100410.69;;;15.14;100.00
28310;BME280;15571;50.974;13.936;2022-10-26T13:57:29;100419.50;;;15.15;100.00
28310;BME280;15571;50.974;13.936;2022-10-26T14:00:59;100423.78;;;15.19;100.00
28310;BME280;15571;50.974;13.936;2022-10-26T14:04:16;100435.22;;;15.19;100.00
28310;BME280;15571;50.974;13.936;2022-10-26T14:07:33;100435.25;;;15.18;100.00
28310;BME280;15571;50.974;13.936;2022-10-26T14:10:41;100437.06;;;15.16;100.00
28310;BME280;15571;50.974;13.936;2022-10-26T14:13:48;100438.84;;;15.14;100.00
28310;BME280;15571;50.974;13.936;2022-10-26T14:17:02;100441.53;;;15.10;100.00
28310;BME280;15571;50.974;13.936;2022-10-26T14:20:06;100437.22;;;15.08;100.00
28310;BME280;15571;50.974;13.936;2022-10-26T14:23:26;100442.53;;;15.06;100.00
28310;BME280;15571;50.974;13.936;2022-10-26T14:26:36;100443.38;;;15.07;100.00
28310;BME280;15571;50.974;13.936;2022-10-26T14:29:39;100439.88;;;15.06;100.00
28310;BME280;15571;50.974;13.936;2022-10-26T14:32:43;100439.03;;;15.04;100.00
28310;BME280;15571;50.974;13.936;2022-10-26T14:35:49;100441.69;;;15.04;100.00
28310;BME280;15571;50.974;13.936;2022-10-26T14:38:56;100443.44;;;15.04;100.00
28310;BME280;15571;50.974;13.936;2022-10-26T14:42:12;100444.38;;;15.01;100.00
28310;BME280;15571;50.974;13.936;2022-10-26T14:45:23;100442.63;;;15.02;100.00
28310;BME280;15571;50.974;13.936;2022-10-26T14:48:32;100434.72;;;15.00;100.00
28310;BME280;15571;50.974;13.936;2022-10-26T14:51:37;100447.09;;;14.98;100.00
28310;BME280;15571;50.974;13.936;2022-10-26T14:54:56;100453.25;;;14.97;100.00
28310;BME280;15571;50.974;13.936;2022-10-26T14:58:07;100460.31;;;14.95;100.00
28310;BME280;15571;50.974;13.936;2022-10-26T15:01:26;100463.03;;;14.90;100.00
28310;BME280;15571;50.974;13.936;2022-10-26T15:04:33;100470.06;;;14.90;100.00
28310;BME280;15571;50.974;13.936;2022-10-26T15:07:37;100482.47;;;14.85;100.00
28310;BME280;15571;50.974;13.936;2022-10-26T15:10:52;100476.31;;;14.84;100.00
28310;BME280;15571;50.974;13.936;2022-10-26T15:13:55;100477.28;;;14.80;100.00
28310;BME280;15571;50.974;13.936;2022-10-26T15:16:59;100477.28;;;14.80;100.00
28310;BME280;15571;50.974;13.936;2022-10-26T15:20:06;100476.41;;;14.79;100.00
28310;BME280;15571;50.974;13.936;2022-10-26T15:23:12;100484.41;;;14.76;100.00
28310;BME280;15571;50.974;13.936;2022-10-26T15:26:22;100481.84;;;14.72;100.00
28310;BME280;15571;50.974;13.936;2022-10-26T15:29:42;100483.69;;;14.68;100.00
28310;BME280;15571;50.974;13.936;2022-10-26T15:32:47;100488.06;;;14.64;100.00
28310;BME280;15571;50.974;13.936;2022-10-26T15:36:12;100477.63;;;14.60;100.00
28310;BME280;15571;50.974;13.936;2022-10-26T15:39:15;100482.06;;;14.56;100.00
28310;BME280;15571;50.974;13.936;2022-10-26T15:42:18;100492.66;;;14.55;100.00
28310;BME280;15571;50.974;13.936;2022-10-26T15:45:22;100490.09;;;14.50;100.00
28310;BME280;15571;50.974;13.936;2022-10-26T15:48:27;100503.31;;;14.48;100.00
28310;BME280;15571;50.974;13.936;2022-10-26T15:51:37;100498.97;;;14.44;100.00
28310;BME280;15571;50.974;13.936;2022-10-26T15:54:39;100503.47;;;14.39;100.00
28310;BME280;15571;50.974;13.936;2022-10-26T15:57:45;100495.63;;;14.35;100.00
28310;BME280;15571;50.974;13.936;2022-10-26T16:00:48;100500.03;;;14.34;100.00
28310;BME280;15571;50.974;13.936;2022-10-26T16:03:54;100509.78;;;14.27;100.00
28310;BME280;15571;50.974;13.936;2022-10-26T16:06:58;100507.19;;;14.26;100.00
28310;BME280;15571;50.974;13.936;2022-10-26T16:10:13;100509.84;;;14.24;100.00
28310;BME280;15571;50.974;13.936;2022-10-26T16:13:19;100515.13;;;14.23;100.00
28310;BME280;15571;50.974;13.936;2022-10-26T16:16:22;100523.09;;;14.18;100.00
28310;BME280;15571;50.974;13.936;2022-10-26T16:19:24;100521.50;;;14.09;100.00
28310;BME280;15571;50.974;13.936;2022-10-26T16:22:28;100520.59;;;14.09;100.00
28310;BME280;15571;50.974;13.936;2022-10-26T16:25:32;100518.03;;;14.06;100.00
28310;BME280;15571;50.974;13.936;2022-10-26T16:28:38;100518.94;;;14.03;100.00
28310;BME280;15571;50.974;13.936;2022-10-26T16:31:41;100519.81;;;14.04;100.00
28310;BME280;15571;50.974;13.936;2022-10-26T16:34:43;100521.63;;;13.98;100.00
28310;BME280;15571;50.974;13.936;2022-10-26T16:37:47;100525.19;;;13.96;100.00
28310;BME280;15571;50.974;13.936;2022-10-26T16:41:03;100529.59;;;13.94;100.00
28310;BME280;15571;50.974;13.936;2022-10-26T16:44:13;100537.56;;;13.91;100.00
28310;BME280;15571;50.974;13.936;2022-10-26T16:47:18;100537.59;;;13.88;100.00
28310;BME280;15571;50.974;13.936;2022-10-26T16:50:20;100539.34;;;13.89;100.00
28310;BME280;15571;50.974;13.936;2022-10-26T16:53:32;100543.72;;;13.88;100.00
28310;BME280;15571;50.974;13.936;2022-10-26T16:56:37;100544.59;;;13.87;100.00
28310;BME280;15571;50.974;13.936;2022-10-26T16:59:42;100544.63;;;13.85;100.00
28310;BME280;15571;50.974;13.936;2022-10-26T17:02:46;100541.25;;;13.77;100.00
28310;BME280;15571;50.974;13.936;2022-10-26T17:05:54;100552.63;;;13.78;100.00
28310;BME280;15571;50.974;13.936;2022-10-26T17:08:58;100557.91;;;13.76;100.00
28310;BME280;15571;50.974;13.936;2022-10-26T17:12:01;100560.53;;;13.76;100.00
28310;BME280;15571;50.974;13.936;2022-10-26T17:15:08;100559.69;;;13.76;100.00
28310;BME280;15571;50.974;13.936;2022-10-26T17:18:10;100560.56;;;13.75;100.00
28310;BME280;15571;50.974;13.936;2022-10-26T17:21:26;100557.13;;;13.71;100.00
28310;BME280;15571;50.974;13.936;2022-10-26T17:24:31;100564.13;;;13.70;100.00
28310;BME280;15571;50.974;13.936;2022-10-26T17:27:34;100564.16;;;13.69;100.00
28310;BME280;15571;50.974;13.936;2022-10-26T17:30:36;100561.59;;;13.64;100.00
28310;BME280;15571;50.974;13.936;2022-10-26T17:33:40;100565.94;;;13.67;100.00
28310;BME280;15571;50.974;13.936;2022-10-26T17:36:44;100580.84;;;13.65;100.00
28310;BME280;15571;50.974;13.936;2022-10-26T17:39:48;100586.13;;;13.65;100.00
28310;BME280;15571;50.974;13.936;2022-10-26T17:42:51;100595.78;;;13.64;100.00
28310;BME280;15571;50.974;13.936;2022-10-26T17:45:57;100601.91;;;13.62;100.00
28310;BME280;15571;50.974;13.936;2022-10-26T17:49:01;100601.09;;;13.60;100.00
28310;BME280;15571;50.974;13.936;2022-10-26T17:52:04;100620.41;;;13.56;100.00
28310;BME280;15571;50.974;13.936;2022-10-26T17:55:11;100621.28;;;13.58;100.00
28310;BME280;15571;50.974;13.936;2022-10-26T17:58:18;100623.91;;;13.58;100.00
28310;BME280;15571;50.974;13.936;2022-10-26T18:01:27;100626.56;;;13.54;100.00
28310;BME280;15571;50.974;13.936;2022-10-26T18:04:30;100626.56;;;13.54;100.00
28310;BME280;15571;50.974;13.936;2022-10-26T18:07:32;100637.19;;;13.45;100.00
28310;BME280;15571;50.974;13.936;2022-10-26T18:10:37;100634.59;;;13.44;100.00
28310;BME280;15571;50.974;13.936;2022-10-26T18:13:40;100639.91;;;13.39;100.00
28310;BME280;15571;50.974;13.936;2022-10-26T18:16:46;100639.84;;;13.42;100.00
28310;BME280;15571;50.974;13.936;2022-10-26T18:19:54;100653.84;;;13.44;100.00
28310;BME280;15571;50.974;13.936;2022-10-26T18:22:56;100644.22;;;13.45;100.00
28310;BME280;15571;50.974;13.936;2022-10-26T18:26:02;100650.34;;;13.45;100.00
28310;BME280;15571;50.974;13.936;2022-10-26T18:29:05;100659.09;;;13.44;100.00
28310;BME280;15571;50.974;13.936;2022-10-26T18:32:07;100663.50;;;13.44;100.00
28310;BME280;15571;50.974;13.936;2022-10-26T18:35:10;100663.53;;;13.37;100.00
28310;BME280;15571;50.974;13.936;2022-10-26T18:38:13;100663.53;;;13.41;100.00
28310;BME280;15571;50.974;13.936;2022-10-26T18:41:18;100671.44;;;13.36;100.00
28310;BME280;15571;50.974;13.936;2022-10-26T18:44:21;100663.56;;;13.33;100.00
28310;BME280;15571;50.974;13.936;2022-10-26T18:47:27;100672.38;;;13.32;100.00
28310;BME280;15571;50.974;13.936;2022-10-26T18:50:31;100679.41;;;13.30;100.00
28310;BME280;15571;50.974;13.936;2022-10-26T18:53:37;100685.53;;;13.29;100.00
28310;BME280;15571;50.974;13.936;2022-10-26T18:56:41;100691.66;;;13.29;100.00
28310;BME280;15571;50.974;13.936;2022-10-26T18:59:53;100682.03;;;13.30;100.00
28310;BME280;15571;50.974;13.936;2022-10-26T19:03:01;100694.28;;;13.31;100.00
28310;BME280;15571;50.974;13.936;2022-10-26T19:06:12;100698.72;;;13.24;100.00
28310;BME280;15571;50.974;13.936;2022-10-26T19:09:25;100698.75;;;13.22;100.00
28310;BME280;15571;50.974;13.936;2022-10-26T19:12:29;100705.75;;;13.22;100.00
28310;BME280;15571;50.974;13.936;2022-10-26T19:15:32;100708.34;;;13.23;100.00
28310;BME280;15571;50.974;13.936;2022-10-26T19:18:45;100710.97;;;13.25;100.00
28310;BME280;15571;50.974;13.936;2022-10-26T19:21:50;100715.38;;;13.26;100.00
28310;BME280;15571;50.974;13.936;2022-10-26T19:24:54;100723.25;;;13.26;100.00
28310;BME280;15571;50.974;13.936;2022-10-26T19:28:01;100735.53;;;13.24;100.00
28310;BME280;15571;50.974;13.936;2022-10-26T19:31:05;100732.91;;;13.22;100.00
28310;BME280;15571;50.974;13.936;2022-10-26T19:34:11;100746.06;;;13.21;100.00
28310;BME280;15571;50.974;13.936;2022-10-26T19:37:19;100743.44;;;13.22;100.00
28310;BME280;15571;50.974;13.936;2022-10-26T19:40:33;100745.19;;;13.20;100.00
28310;BME280;15571;50.974;13.936;2022-10-26T19:43:38;100745.19;;;13.20;100.00
28310;BME280;15571;50.974;13.936;2022-10-26T19:46:41;100748.69;;;13.21;100.00
28310;BME280;15571;50.974;13.936;2022-10-26T19:49:47;100757.50;;;13.15;100.00
28310;BME280;15571;50.974;13.936;2022-10-26T19:52:49;100749.66;;;13.12;100.00
28310;BME280;15571;50.974;13.936;2022-10-26T19:56:01;100762.81;;;13.09;100.00
28310;BME280;15571;50.974;13.936;2022-10-26T19:59:13;100768.91;;;13.10;100.00
28310;BME280;15571;50.974;13.936;2022-10-26T20:02:16;100769.84;;;13.04;100.00
28310;BME280;15571;50.974;13.936;2022-10-26T20:05:22;100767.25;;;13.01;100.00
28310;BME280;15571;50.974;13.936;2022-10-26T20:08:27;100769.88;;;13.01;100.00
28310;BME280;15571;50.974;13.936;2022-10-26T20:11:33;100776.88;;;12.99;100.00
28310;BME280;15571;50.974;13.936;2022-10-26T20:14:39;100776.88;;;12.99;100.00
28310;BME280;15571;50.974;13.936;2022-10-26T20:17:46;100776.91;;;12.96;100.00
28310;BME280;15571;50.974;13.936;2022-10-26T20:20:49;100787.47;;;12.89;100.00
28310;BME280;15571;50.974;13.936;2022-10-26T20:24:11;100792.72;;;12.89;100.00
28310;BME280;15571;50.974;13.936;2022-10-26T20:27:19;100789.22;;;12.87;100.00
28310;BME280;15571;50.974;13.936;2022-10-26T20:30:23;100794.50;;;12.86;100.00
28310;BME280;15571;50.974;13.936;2022-10-26T20:33:26;100798.88;;;12.87;100.00
28310;BME280;15571;50.974;13.936;2022-10-26T20:36:29;100785.72;;;12.85;100.00
28310;BME280;15571;50.974;13.936;2022-10-26T20:39:34;100796.28;;;12.79;100.00
28310;BME280;15571;50.974;13.936;2022-10-26T20:42:37;100798.03;;;12.77;100.00
28310;BME280;15571;50.974;13.936;2022-10-26T20:45:46;100795.41;;;12.77;100.00
28310;BME280;15571;50.974;13.936;2022-10-26T20:48:56;100809.41;;;12.76;100.00
28310;BME280;15571;50.974;13.936;2022-10-26T20:52:03;100812.91;;;12.75;100.00
28310;BME280;15571;50.974;13.936;2022-10-26T20:55:27;100811.22;;;12.71;100.00
28310;BME280;15571;50.974;13.936;2022-10-26T20:58:42;100816.50;;;12.61;100.00
28310;BME280;15571;50.974;13.936;2022-10-26T21:01:46;100805.13;;;12.63;100.00
28310;BME280;15571;50.974;13.936;2022-10-26T21:04:51;100816.50;;;12.63;100.00
28310;BME280;15571;50.974;13.936;2022-10-26T21:07:59;100813.88;;;12.63;100.00
28310;BME280;15571;50.974;13.936;2022-10-26T21:11:05;100814.75;;;12.57;100.00
28310;BME280;15571;50.974;13.936;2022-10-26T23:01:34;100874.38;;;11.95;100.00
28310;BME280;15571;50.974;13.936;2022-10-26T23:04:37;100876.13;;;11.93;100.00
28310;BME280;15571;50.974;13.936;2022-10-26T23:07:40;100878.75;;;11.91;100.00
28310;BME280;15571;50.974;13.936;2022-10-26T23:10:47;100883.13;;;11.94;100.00
28310;BME280;15571;50.974;13.936;2022-10-26T23:13:53;100885.75;;;11.92;100.00
28310;BME280;15571;50.974;13.936;2022-10-26T23:16:58;100885.75;;;11.92;100.00
28310;BME280;15571;50.974;13.936;2022-10-26T23:20:00;100887.50;;;11.96;100.00
28310;BME280;15571;50.974;13.936;2022-10-26T23:23:03;100891.03;;;12.02;100.00
28310;BME280;15571;50.974;13.936;2022-10-26T23:26:07;100891.91;;;12.05;100.00
28310;BME280;15571;50.974;13.936;2022-10-26T23:29:10;100893.63;;;12.08;100.00
28310;BME280;15571;50.974;13.936;2022-10-26T23:32:14;100902.41;;;12.08;100.00
28310;BME280;15571;50.974;13.936;2022-10-26T23:35:18;100902.41;;;12.10;100.00
28310;BME280;15571;50.974;13.936;2022-10-26T23:38:20;100905.88;;;12.10;100.00
28310;BME280;15571;50.974;13.936;2022-10-26T23:41:23;100909.41;;;12.11;100.00
28310;BME280;15571;50.974;13.936;2022-10-26T23:44:25;100905.91;;;12.04;100.00
28310;BME280;15571;50.974;13.936;2022-10-26T23:47:29;100904.16;;;12.03;100.00
28310;BME280;15571;50.974;13.936;2022-10-26T23:50:35;100910.28;;;12.04;100.00
28310;BME280;15571;50.974;13.936;2022-10-26T23:53:37;100910.28;;;12.01;100.00
28310;BME280;15571;50.974;13.936;2022-10-26T23:56:40;100912.91;;;12.04;100.00
28310;BME280;15571;50.974;13.936;2022-10-26T23:59:43;100909.38;;;12.03;100.00
